Airfield :
LOGIN :

Register | Disclaimer

   EN    FR    IT 

 










Legend :    VFR   Marginal VFR   IFR   Intensive IFR   Very Intensive IFR
Visi :
Ceiling :
>= 8 km
>= 3000ft
5 to 8 km
1000 to 3000 ft
1500m to 5 km
500 to 1000 ft
800 to 1500m
200 to 500 ft
< 800m
< 200 ft
Symbols :   Thunderstorms  Fog  Heavy snow  Heavy precipitations  Wind > 20 kt
SIGMETs :     Misc.  Thunderstorms  Icing  Turbulence  Mountain Waves  Volcanic Ashes






- Airport Elevation : 162 ft
- IATA code : BOD


LFBD - Bordeaux / Merignac

CURRENT METAR :
  • 050700Z AUTO 19005KT 160V230 9999 SCT021 SCT028 BKN092 18/16 Q1014 NOSIG

EXPIRED METARs :
  • 050630Z AUTO 18004KT 9999 FEW024 SCT034 BKN049 17/16 Q1014 NOSIG
  • 050600Z AUTO 19004KT 160V220 9999 FEW038/// BKN048/// OVC100/// ///TCU 17/15 Q1015 BECMG BKN030
  • 050530Z AUTO 19003KT 9999 ///TCU 16/15 Q1014 BECMG BKN030
  • 050500Z AUTO 19003KT CAVOK 16/15 Q1015 NOSIG
  • 050430Z AUTO 19003KT CAVOK 16/15 Q1015 NOSIG

TAF TAF LFBD
Valid from the 05 at 06:00 until the 06 at 12:00 UTC


050500Z 0506/0612 19005KT 9999 BKN030 TX25/0612Z TN16/0506Z
TEMPO 0506/0510 -SHRA
BECMG 0510/0512 25010KT
TEMPO 0514/0520 26015G25KT 4000 -RA
TEMPO 0609/0612 -SHRA
ATIS : +33 5 57 92 81 04



MET'MAP, your aeronautical weather chart ! - Copyright ORBIFLY December 2007 - Disclaimer

ORBIFLY MET'MAP TEAM :

Programming & Development : Alexandra Zaïnal
Concept & original design : Baudouin d'Aumeries
Assistance for programming : Marc-Olivier Méhu
Technical & hardware support : Manuel Goepfert

Contact : metmap@orbifly.com




SOURCES & CREDITS :

   NOAA